createdAt,value
2022-12-03T00:02:22.219Z,3.19
2022-12-03T00:04:49.738Z,3.16
2022-12-03T00:07:17.306Z,3.15
2022-12-03T00:09:44.584Z,3.14
2022-12-03T00:12:11.937Z,3.15
2022-12-03T00:14:44.422Z,3.17
2022-12-03T00:17:13.624Z,3.14
2022-12-03T00:19:40.823Z,3.09
2022-12-03T00:22:08.162Z,3.13
2022-12-03T00:24:35.667Z,3.13
2022-12-03T00:27:03.398Z,3.15
2022-12-03T00:29:30.807Z,3.09
2022-12-03T00:31:58.349Z,3.12
2022-12-03T00:34:26.985Z,3.15
2022-12-03T00:36:57.359Z,3.11
2022-12-03T00:39:24.764Z,3.12
2022-12-03T00:41:52.315Z,3.06
2022-12-03T00:44:19.793Z,3.06
2022-12-03T00:46:47.275Z,3.06
2022-12-03T00:49:14.568Z,3.08
2022-12-03T00:51:43.337Z,2.99
2022-12-03T00:54:10.923Z,3.00
2022-12-03T00:56:39.921Z,2.99
2022-12-03T00:59:07.531Z,2.99
2022-12-03T01:01:34.944Z,3.04
2022-12-03T01:04:02.268Z,3.00
2022-12-03T01:06:29.637Z,2.97
2022-12-03T01:08:58.312Z,2.92
2022-12-03T01:11:25.860Z,2.92
2022-12-03T01:13:53.238Z,3.02
2022-12-03T01:16:20.739Z,2.98
2022-12-03T01:18:48.085Z,2.96
2022-12-03T01:21:15.620Z,2.92
2022-12-03T01:23:42.929Z,2.94
2022-12-03T01:26:11.625Z,2.91
2022-12-03T01:28:38.957Z,2.87
2022-12-03T01:31:06.753Z,2.87
2022-12-03T01:33:34.364Z,2.87
2022-12-03T01:36:01.655Z,2.88
2022-12-03T01:38:28.928Z,2.91
2022-12-03T01:40:56.462Z,2.83
2022-12-03T01:43:25.316Z,2.80
2022-12-03T01:45:52.778Z,2.80
2022-12-03T01:48:20.234Z,2.77
2022-12-03T01:50:47.924Z,2.72
2022-12-03T01:53:17.016Z,2.73
2022-12-03T01:55:48.627Z,2.71
2022-12-03T01:58:19.306Z,2.65
2022-12-03T02:00:48.278Z,2.70
2022-12-03T02:03:19.695Z,2.64
2022-12-03T02:05:47.127Z,2.61
2022-12-03T02:08:31.640Z,2.65
2022-12-03T02:11:02.703Z,2.59
2022-12-03T02:13:30.250Z,2.66
2022-12-03T02:15:59.138Z,2.63
2022-12-03T02:18:26.721Z,2.63
2022-12-03T02:21:02.245Z,2.68
2022-12-03T02:23:36.141Z,2.66
2022-12-03T02:26:05.095Z,2.69
2022-12-03T02:28:32.712Z,2.59
2022-12-03T02:31:00.246Z,2.60
2022-12-03T02:33:27.630Z,2.58
2022-12-03T02:35:58.017Z,2.51
2022-12-03T02:38:32.403Z,2.53
2022-12-03T02:41:06.439Z,2.47
2022-12-03T02:43:33.945Z,2.46
2022-12-03T02:46:03.445Z,2.46
2022-12-03T02:48:33.987Z,2.46
2022-12-03T02:51:04.127Z,2.43
2022-12-03T02:53:36.158Z,2.40
2022-12-03T02:56:06.112Z,2.38
2022-12-03T02:58:34.120Z,2.33
2022-12-03T03:01:04.171Z,2.38
2022-12-03T03:03:32.929Z,2.31
2022-12-03T03:06:03.012Z,2.30
2022-12-03T03:08:31.181Z,2.26
2022-12-03T03:11:00.932Z,2.22
2022-12-03T03:13:30.756Z,2.14
2022-12-03T03:15:58.681Z,2.11
2022-12-03T03:18:26.046Z,2.08
2022-12-03T03:20:53.643Z,1.96
2022-12-03T03:23:24.127Z,2.02
2022-12-03T03:26:01.358Z,2.02
2022-12-03T03:28:31.230Z,2.00
2022-12-03T03:31:02.224Z,1.95
2022-12-03T03:33:31.091Z,1.92
2022-12-03T03:36:01.955Z,1.93
2022-12-03T03:38:30.455Z,1.87
2022-12-03T03:41:00.525Z,1.90
2022-12-03T03:43:31.341Z,1.86
2022-12-03T03:45:59.086Z,1.86
2022-12-03T03:48:26.533Z,1.82
2022-12-03T03:50:54.189Z,1.82
2022-12-03T03:53:21.995Z,1.86
2022-12-03T03:55:49.935Z,1.85
2022-12-03T03:58:17.307Z,1.79
2022-12-03T04:00:46.952Z,1.78
2022-12-03T04:03:14.351Z,1.75
2022-12-03T04:05:41.794Z,1.76
2022-12-03T04:08:09.139Z,1.71
2022-12-03T04:10:36.567Z,1.72
2022-12-03T04:13:04.507Z,1.71
2022-12-03T04:15:31.968Z,1.71
2022-12-03T04:18:00.965Z,1.68
2022-12-03T04:20:28.238Z,1.68
2022-12-03T04:22:55.571Z,1.62
2022-12-03T04:25:22.823Z,1.60
2022-12-03T04:27:53.790Z,1.57
2022-12-03T04:30:21.205Z,1.62
2022-12-03T04:32:51.648Z,1.60
2022-12-03T04:35:20.448Z,1.65
2022-12-03T04:37:47.880Z,1.69
2022-12-03T04:40:15.376Z,1.67
2022-12-03T04:42:42.660Z,1.62
2022-12-03T04:45:10.887Z,1.60
2022-12-03T04:47:39.980Z,1.60
2022-12-03T04:50:08.411Z,1.66
2022-12-03T04:52:37.034Z,1.63
2022-12-03T04:55:04.919Z,1.59
2022-12-03T04:57:32.151Z,1.60
2022-12-03T04:59:59.525Z,1.56
2022-12-03T05:02:42.042Z,1.59
2022-12-03T05:05:10.134Z,1.60
2022-12-03T05:07:38.923Z,1.55
2022-12-03T05:10:07.775Z,1.50
2022-12-03T05:12:35.221Z,1.56
2022-12-03T05:15:03.901Z,1.47
2022-12-03T05:17:31.500Z,1.44
2022-12-03T05:19:58.842Z,1.40
2022-12-03T05:22:26.121Z,1.38
2022-12-03T05:24:55.324Z,1.35
2022-12-03T05:27:24.112Z,1.27
2022-12-03T05:29:52.297Z,1.28
2022-12-03T05:32:19.824Z,1.23
2022-12-03T05:34:47.467Z,1.18
2022-12-03T05:37:14.990Z,1.18
2022-12-03T05:39:42.315Z,1.09
2022-12-03T05:42:11.041Z,1.09
2022-12-03T05:44:38.438Z,1.11
2022-12-03T05:47:06.027Z,1.05
2022-12-03T05:49:33.427Z,1.05
2022-12-03T05:52:00.741Z,1.06
2022-12-03T05:54:29.271Z,1.03
2022-12-03T05:56:56.949Z,1.10
2022-12-03T05:59:25.683Z,1.02
2022-12-03T06:01:55.713Z,1.00
2022-12-03T06:04:25.347Z,1.01
2022-12-03T06:06:52.689Z,0.95
2022-12-03T06:09:20.003Z,0.94
2022-12-03T06:11:47.478Z,0.95
2022-12-03T06:14:15.006Z,0.94
2022-12-03T06:16:43.688Z,0.99
2022-12-03T06:19:11.137Z,1.02
2022-12-03T06:21:38.606Z,0.99
2022-12-03T06:24:06.369Z,1.05
2022-12-03T06:26:33.639Z,1.07
2022-12-03T06:29:00.978Z,1.08
2022-12-03T06:31:28.347Z,1.04
2022-12-03T06:33:57.123Z,1.03
2022-12-03T06:36:24.357Z,0.98
2022-12-03T06:38:51.613Z,0.95
2022-12-03T06:41:19.024Z,0.96
2022-12-03T06:43:46.729Z,1.00
2022-12-03T06:46:14.193Z,1.00
2022-12-03T06:48:41.810Z,1.02
2022-12-03T06:51:10.455Z,0.99
2022-12-03T06:53:37.863Z,0.97
2022-12-03T06:56:05.940Z,0.98
2022-12-03T06:58:33.241Z,0.95
2022-12-03T07:01:00.550Z,0.85
2022-12-03T07:03:27.922Z,0.91
2022-12-03T07:05:55.375Z,0.88
2022-12-03T07:08:24.093Z,0.91
2022-12-03T07:10:51.425Z,0.85
2022-12-03T07:13:18.816Z,0.84
2022-12-03T07:15:46.436Z,0.83
2022-12-03T07:18:14.047Z,0.85
2022-12-03T07:20:41.321Z,0.86
2022-12-03T07:23:08.600Z,0.86
2022-12-03T07:25:37.641Z,0.82
2022-12-03T07:28:05.239Z,0.83
2022-12-03T07:30:32.465Z,0.82
2022-12-03T07:32:59.802Z,0.85
2022-12-03T07:35:28.011Z,0.85
2022-12-03T07:37:55.437Z,0.92
2022-12-03T07:40:22.747Z,0.84
2022-12-03T07:42:51.424Z,0.86
2022-12-03T07:45:18.960Z,0.92
2022-12-03T07:47:46.525Z,0.94
2022-12-03T07:50:14.018Z,0.93
2022-12-03T07:52:41.386Z,1.01
2022-12-03T07:55:10.604Z,0.99
2022-12-03T07:57:38.112Z,0.93
2022-12-03T08:00:08.176Z,0.97
2022-12-03T08:02:36.081Z,0.96
2022-12-03T08:05:03.924Z,0.99
2022-12-03T08:07:31.502Z,1.03
2022-12-03T08:09:59.147Z,0.93
2022-12-03T08:12:28.149Z,0.87
2022-12-03T08:14:56.721Z,0.87
2022-12-03T08:17:26.901Z,0.97
2022-12-03T08:19:54.187Z,1.04
2022-12-03T08:22:21.541Z,1.02
2022-12-03T08:24:49.096Z,1.06
2022-12-03T08:27:18.904Z,1.02
2022-12-03T08:29:46.655Z,1.02
2022-12-03T08:32:14.392Z,1.06
2022-12-03T08:34:44.574Z,1.14
2022-12-03T08:37:17.448Z,1.24
2022-12-03T08:39:46.631Z,1.06
2022-12-03T08:42:18.554Z,1.08
2022-12-03T08:44:45.882Z,1.01
2022-12-03T08:47:19.415Z,0.94
2022-12-03T08:49:53.814Z,1.01
2022-12-03T08:52:30.783Z,0.87
2022-12-03T08:54:58.627Z,0.89
2022-12-03T08:57:29.009Z,0.87
2022-12-03T09:00:00.021Z,0.83
2022-12-03T09:02:32.823Z,0.82
2022-12-03T09:05:16.548Z,0.80
2022-12-03T09:07:43.860Z,0.81
2022-12-03T09:10:11.215Z,0.69
2022-12-03T09:12:38.515Z,0.80
2022-12-03T09:15:07.223Z,0.70
2022-12-03T09:17:34.692Z,0.71
2022-12-03T09:20:04.478Z,0.81
2022-12-03T09:22:32.028Z,0.72
2022-12-03T09:24:59.302Z,0.67
2022-12-03T09:27:26.662Z,0.62
2022-12-03T09:29:53.999Z,0.67
2022-12-03T09:32:21.437Z,0.75
2022-12-03T09:34:48.874Z,0.69
2022-12-03T09:37:17.658Z,0.63
2022-12-03T09:39:45.094Z,0.68
2022-12-03T09:42:14.744Z,0.72
2022-12-03T09:44:45.445Z,0.77
2022-12-03T09:47:12.868Z,0.77
2022-12-03T09:49:41.502Z,0.80
2022-12-03T09:52:16.238Z,0.83
2022-12-03T09:54:51.912Z,0.80
2022-12-03T09:57:19.960Z,0.92
2022-12-03T09:59:47.412Z,0.85
2022-12-03T10:02:21.534Z,0.80
2022-12-03T10:04:49.811Z,0.82
2022-12-03T10:07:17.165Z,0.84
2022-12-03T10:09:45.984Z,0.94
2022-12-03T10:12:14.488Z,1.12
2022-12-03T10:14:45.605Z,1.07
2022-12-03T10:17:12.992Z,1.18
2022-12-03T10:19:40.534Z,1.32
2022-12-03T10:22:07.876Z,1.43
2022-12-03T10:24:36.565Z,1.34
2022-12-03T10:27:21.019Z,1.32
2022-12-03T10:29:54.914Z,1.43
2022-12-03T10:32:25.806Z,1.52
2022-12-03T10:35:07.293Z,1.54
2022-12-03T10:37:34.686Z,1.56
2022-12-03T10:40:05.625Z,1.59
2022-12-03T10:42:38.509Z,1.62
2022-12-03T10:45:23.628Z,1.85
2022-12-03T10:48:06.410Z,2.09
2022-12-03T10:50:34.698Z,2.00
2022-12-03T10:53:02.870Z,2.20
2022-12-03T10:55:37.357Z,1.99
2022-12-03T10:58:08.803Z,2.25
2022-12-03T11:00:36.122Z,2.43
2022-12-03T11:03:03.692Z,2.29
2022-12-03T11:05:31.233Z,2.11
2022-12-03T11:07:58.660Z,1.98
2022-12-03T11:10:26.065Z,1.87
2022-12-03T11:13:30.291Z,1.94
2022-12-03T11:15:58.285Z,2.12
2022-12-03T11:19:01.403Z,2.00
2022-12-03T11:21:29.630Z,1.92
2022-12-03T11:24:19.139Z,1.91
2022-12-03T11:27:20.882Z,2.01
2022-12-03T11:30:01.017Z,2.17
2022-12-03T11:33:05.051Z,2.23
2022-12-03T11:36:04.907Z,2.30
2022-12-03T11:38:53.237Z,2.35
2022-12-03T11:41:24.038Z,2.30
2022-12-03T11:44:20.360Z,2.46
2022-12-03T11:46:49.362Z,2.47
2022-12-03T11:49:29.748Z,2.23
2022-12-03T11:51:57.704Z,2.20
2022-12-03T11:54:25.338Z,2.13
2022-12-03T11:56:54.228Z,2.01
2022-12-03T11:59:21.608Z,2.07
2022-12-03T12:01:50.745Z,2.07
2022-12-03T12:04:31.448Z,2.13
2022-12-03T12:06:59.785Z,2.14
2022-12-03T12:09:53.465Z,2.00
2022-12-03T12:12:28.844Z,2.06
2022-12-03T12:14:56.677Z,2.02
2022-12-03T12:17:36.562Z,1.90
2022-12-03T12:20:23.200Z,2.09
2022-12-03T12:22:51.264Z,2.04
2022-12-03T12:25:39.567Z,2.11
2022-12-03T12:28:07.438Z,2.22
2022-12-03T12:30:35.149Z,2.17
2022-12-03T12:33:16.885Z,2.16
2022-12-03T12:35:44.201Z,2.12
2022-12-03T12:38:18.106Z,2.19
2022-12-03T12:40:47.346Z,2.25
2022-12-03T12:43:24.741Z,2.24
2022-12-03T12:45:53.637Z,2.21
2022-12-03T12:48:27.187Z,2.27
2022-12-03T12:51:00.205Z,2.38
2022-12-03T12:53:29.637Z,2.33
2022-12-03T12:55:58.931Z,2.28
2022-12-03T12:58:30.005Z,2.28
2022-12-03T13:01:04.495Z,2.33
2022-12-03T13:03:36.802Z,2.34
2022-12-03T13:06:04.380Z,2.27
2022-12-03T13:08:34.038Z,2.21
2022-12-03T13:11:02.185Z,2.34
2022-12-03T13:13:41.619Z,2.41
2022-12-03T13:16:16.498Z,2.19
2022-12-03T13:18:46.896Z,2.15
2022-12-03T13:21:22.254Z,2.16
2022-12-03T13:23:52.538Z,2.26
2022-12-03T13:26:34.538Z,2.24
2022-12-03T13:29:11.059Z,2.24
2022-12-03T13:31:43.423Z,2.13
2022-12-03T13:34:19.067Z,2.13
2022-12-03T13:36:53.485Z,2.23
2022-12-03T13:39:30.658Z,2.20
2022-12-03T13:42:02.998Z,2.09
2022-12-03T13:44:31.136Z,2.18
2022-12-03T13:47:01.950Z,2.11
2022-12-03T13:49:30.597Z,2.09
2022-12-03T13:51:57.938Z,2.06
2022-12-03T13:54:29.089Z,2.12
2022-12-03T13:56:56.330Z,2.12
2022-12-03T13:59:26.259Z,2.10
2022-12-03T14:01:53.930Z,2.04
2022-12-03T14:04:21.207Z,2.01
2022-12-03T14:06:50.234Z,2.01
2022-12-03T14:09:17.478Z,2.11
2022-12-03T14:11:44.852Z,2.12
2022-12-03T14:14:12.429Z,2.12
2022-12-03T14:16:39.826Z,2.17
2022-12-03T14:19:07.485Z,2.11
2022-12-03T14:21:34.938Z,2.03
2022-12-03T14:24:03.954Z,2.05
2022-12-03T14:26:32.178Z,1.94
2022-12-03T14:28:59.448Z,2.00
2022-12-03T14:31:26.715Z,2.00
2022-12-03T14:33:53.999Z,1.92
2022-12-03T14:36:21.322Z,1.87
2022-12-03T14:38:48.652Z,1.79
2022-12-03T14:41:17.310Z,1.77
2022-12-03T14:43:44.615Z,1.71
2022-12-03T14:46:11.998Z,1.70
2022-12-03T14:48:39.326Z,1.70
2022-12-03T14:51:06.651Z,1.68
2022-12-03T14:53:33.973Z,1.64
2022-12-03T14:56:01.320Z,1.65
2022-12-03T14:58:30.065Z,1.64
2022-12-03T15:00:57.380Z,1.62
2022-12-03T15:03:24.687Z,1.60
2022-12-03T15:05:51.987Z,1.59
2022-12-03T15:08:19.283Z,1.60
2022-12-03T15:10:46.620Z,1.61
2022-12-03T15:13:13.920Z,1.58
2022-12-03T15:15:42.608Z,1.62
2022-12-03T15:18:09.886Z,1.59
2022-12-03T15:20:37.265Z,1.60
2022-12-03T15:23:04.547Z,1.59
2022-12-03T15:25:31.840Z,1.64
2022-12-03T15:27:59.139Z,1.59
2022-12-03T15:30:26.409Z,1.54
2022-12-03T15:32:55.043Z,1.54
2022-12-03T15:35:22.408Z,1.56
2022-12-03T15:37:49.644Z,1.59
2022-12-03T15:40:17.099Z,1.48
2022-12-03T15:42:44.380Z,1.60
2022-12-03T15:45:15.147Z,1.44
2022-12-03T15:47:43.350Z,1.39
2022-12-03T15:50:12.939Z,1.43
2022-12-03T15:52:40.418Z,1.45
2022-12-03T15:55:08.545Z,1.40
2022-12-03T15:57:36.202Z,1.42
2022-12-03T16:00:05.169Z,1.41
2022-12-03T16:02:39.482Z,1.40
2022-12-03T16:05:09.770Z,1.38
2022-12-03T16:07:39.088Z,1.42
2022-12-03T16:10:09.282Z,1.36
2022-12-03T16:12:36.821Z,1.40
2022-12-03T16:15:05.130Z,1.31
2022-12-03T16:17:32.448Z,1.36
2022-12-03T16:19:59.745Z,1.38
2022-12-03T16:22:27.026Z,1.39
2022-12-03T16:24:55.743Z,1.35
2022-12-03T16:27:25.929Z,1.36
2022-12-03T16:29:53.696Z,1.32
2022-12-03T16:32:21.221Z,1.35
2022-12-03T16:34:48.579Z,1.32
2022-12-03T16:37:15.967Z,1.32
2022-12-03T16:39:48.085Z,1.27
2022-12-03T16:42:17.651Z,1.23
2022-12-03T16:44:45.094Z,1.29
2022-12-03T16:47:12.440Z,1.31
2022-12-03T16:49:39.704Z,1.31
2022-12-03T16:52:07.050Z,1.30
2022-12-03T16:54:34.412Z,1.29
2022-12-03T16:57:01.719Z,1.33
2022-12-03T16:59:30.381Z,1.30
2022-12-03T17:01:57.876Z,1.29
2022-12-03T17:04:25.181Z,1.35
2022-12-03T17:06:52.518Z,1.27
2022-12-03T17:09:19.822Z,1.26
2022-12-03T17:11:47.250Z,1.24
2022-12-03T17:14:14.533Z,1.16
2022-12-03T17:16:43.328Z,1.23
2022-12-03T17:19:10.584Z,1.23
2022-12-03T17:21:37.967Z,1.16
2022-12-03T17:24:05.973Z,1.13
2022-12-03T17:26:33.448Z,1.12
2022-12-03T17:29:00.749Z,1.19
2022-12-03T17:31:28.361Z,1.22
2022-12-03T17:33:57.112Z,1.19
2022-12-03T17:36:24.706Z,1.13
2022-12-03T17:38:52.653Z,1.13
2022-12-03T17:41:19.993Z,1.12
2022-12-03T17:43:50.230Z,1.13
2022-12-03T17:46:17.571Z,1.12
2022-12-03T17:48:44.988Z,1.11
2022-12-03T17:51:13.774Z,0.99
2022-12-03T17:53:41.082Z,1.02
2022-12-03T17:56:08.402Z,1.03
2022-12-03T17:58:35.714Z,1.00
2022-12-03T18:01:03.560Z,1.02
2022-12-03T18:03:31.169Z,0.96
2022-12-03T18:05:58.558Z,0.99
2022-12-03T18:08:27.317Z,0.98
2022-12-03T18:10:54.787Z,0.94
2022-12-03T18:13:22.161Z,0.90
2022-12-03T18:15:49.639Z,0.85
2022-12-03T18:18:16.973Z,0.88
2022-12-03T18:20:44.334Z,0.95
2022-12-03T18:23:12.222Z,0.90
2022-12-03T18:25:41.719Z,0.82
2022-12-03T18:28:09.011Z,0.71
2022-12-03T18:30:36.594Z,0.71
2022-12-03T18:33:03.999Z,0.72
2022-12-03T18:35:31.416Z,0.70
2022-12-03T18:37:58.783Z,0.79
2022-12-03T18:40:26.209Z,0.77
2022-12-03T18:42:55.908Z,0.73
2022-12-03T18:45:23.344Z,0.69
2022-12-03T18:47:54.181Z,0.64
2022-12-03T18:50:21.839Z,0.56
2022-12-03T18:52:49.123Z,0.52
2022-12-03T18:55:18.441Z,0.48
2022-12-03T18:57:45.892Z,0.41
2022-12-03T19:00:15.938Z,0.36
2022-12-03T19:03:02.571Z,0.37
2022-12-03T19:05:31.460Z,0.38
2022-12-03T19:07:58.882Z,0.44
2022-12-03T19:10:26.729Z,0.43
2022-12-03T19:12:54.060Z,0.44
2022-12-03T19:15:22.799Z,0.42
2022-12-03T19:17:51.141Z,0.47
2022-12-03T19:20:18.520Z,0.46
2022-12-03T19:22:45.813Z,0.49
2022-12-03T19:25:13.126Z,0.55
2022-12-03T19:27:40.490Z,0.56
2022-12-03T19:30:09.027Z,0.57
2022-12-03T19:32:37.722Z,0.58
2022-12-03T19:35:05.726Z,0.55
2022-12-03T19:37:33.555Z,0.54
2022-12-03T19:40:00.845Z,0.54
2022-12-03T19:42:28.245Z,0.54
2022-12-03T19:44:55.587Z,0.60
2022-12-03T19:47:22.840Z,0.58
2022-12-03T19:49:52.689Z,0.59
2022-12-03T19:52:20.329Z,0.57
2022-12-03T19:54:47.819Z,0.55
2022-12-03T19:57:21.545Z,0.57
2022-12-03T19:59:50.515Z,0.58
2022-12-03T20:02:17.979Z,0.52
2022-12-03T20:04:45.463Z,0.53
2022-12-03T20:07:14.608Z,0.47
2022-12-03T20:09:42.233Z,0.45
2022-12-03T20:12:09.495Z,0.44
2022-12-03T20:14:36.859Z,0.43
2022-12-03T20:17:04.270Z,0.36
2022-12-03T20:19:31.660Z,0.37
2022-12-03T20:22:02.545Z,0.32
2022-12-03T20:24:32.060Z,0.38
2022-12-03T20:26:59.308Z,0.36
2022-12-03T20:29:26.801Z,0.37
2022-12-03T20:31:54.185Z,0.39
2022-12-03T20:34:21.676Z,0.41
2022-12-03T20:36:49.021Z,0.39
2022-12-03T20:39:16.412Z,0.41
2022-12-03T20:41:45.078Z,0.38
2022-12-03T20:44:12.401Z,0.37
2022-12-03T20:46:39.757Z,0.36
2022-12-03T20:49:07.169Z,0.35
2022-12-03T20:51:34.540Z,0.40
2022-12-03T20:54:01.951Z,0.41
2022-12-03T20:56:30.876Z,0.43
2022-12-03T20:59:03.254Z,0.36
2022-12-03T21:01:30.721Z,0.41
2022-12-03T21:03:58.309Z,0.37
2022-12-03T21:06:27.351Z,0.37
2022-12-03T21:08:55.824Z,0.29
2022-12-03T21:11:26.683Z,0.31
2022-12-03T21:13:54.391Z,0.27
2022-12-03T21:16:45.704Z,0.20
2022-12-03T21:19:12.166Z,0.22
2022-12-03T21:21:39.510Z,0.16
2022-12-03T21:24:07.419Z,0.17
2022-12-03T21:26:34.662Z,0.17
2022-12-03T21:29:02.030Z,0.10
2022-12-03T21:31:30.729Z,0.12
2022-12-03T21:33:58.550Z,0.08
2022-12-03T21:36:26.130Z,0.07
2022-12-03T21:38:53.484Z,0.02
2022-12-03T21:41:20.805Z,-0.02
2022-12-03T21:43:48.124Z,0.02
2022-12-03T21:47:11.088Z,0.02
2022-12-03T21:49:04.765Z,0.02
2022-12-03T21:51:32.292Z,-0.05
2022-12-03T21:53:59.681Z,-0.05
2022-12-03T21:56:27.105Z,-0.05
2022-12-03T21:58:54.770Z,-0.07
2022-12-03T22:01:24.137Z,-0.05
2022-12-03T22:03:51.580Z,-0.07
2022-12-03T22:06:21.110Z,-0.05
2022-12-03T22:08:48.842Z,-0.06
2022-12-03T22:11:19.366Z,0.00
2022-12-03T22:13:47.023Z,0.01
2022-12-03T22:16:16.861Z,-0.03
2022-12-03T22:18:44.503Z,0.03
2022-12-03T22:21:13.822Z,0.03
2022-12-03T22:23:43.243Z,0.07
2022-12-03T22:26:12.936Z,0.03
2022-12-03T22:28:42.897Z,-0.02
2022-12-03T22:31:11.054Z,-0.05
2022-12-03T22:33:39.127Z,-0.05
2022-12-03T22:36:08.368Z,-0.03
2022-12-03T22:38:35.823Z,-0.06
2022-12-03T22:41:06.956Z,-0.12
2022-12-03T22:43:35.345Z,-0.11
2022-12-03T22:46:03.159Z,-0.05
2022-12-03T22:48:32.875Z,-0.14
2022-12-03T22:51:00.228Z,-0.12
2022-12-03T22:53:27.743Z,-0.14
2022-12-03T22:55:57.162Z,-0.11
2022-12-03T22:58:27.372Z,-0.06
2022-12-03T23:01:01.259Z,-0.04
2022-12-03T23:03:30.349Z,-0.08
2022-12-03T23:05:57.641Z,-0.03
2022-12-03T23:08:24.976Z,-0.13
2022-12-03T23:10:52.873Z,-0.05
2022-12-03T23:13:20.428Z,0.00
2022-12-03T23:15:50.843Z,-0.12
2022-12-03T23:18:18.796Z,-0.10
2022-12-03T23:20:47.741Z,-0.06
2022-12-03T23:23:15.991Z,-0.10
2022-12-03T23:25:43.514Z,-0.03
2022-12-03T23:28:11.235Z,0.02
2022-12-03T23:30:39.645Z,-0.07
2022-12-03T23:33:08.339Z,-0.01
2022-12-03T23:35:38.865Z,-0.02
2022-12-03T23:38:06.210Z,-0.07
2022-12-03T23:40:34.335Z,-0.04
2022-12-03T23:43:01.723Z,-0.04
2022-12-03T23:45:29.028Z,-0.05
2022-12-03T23:47:58.302Z,0.08
2022-12-03T23:50:27.805Z,0.02
2022-12-03T23:52:55.287Z,-0.02
2022-12-03T23:55:22.717Z,-0.02
2022-12-03T23:57:50.195Z,-0.05
